sensor_id;sensor_type;location;lat;lon;timestamp;P1;durP1;ratioP1;P2;durP2;ratioP2
60076;SDS011;45950;45.208;20.374;2024-01-06T00:01:41;16.00;;;9.20;;
60076;SDS011;45950;45.208;20.374;2024-01-06T00:04:07;16.85;;;10.85;;
60076;SDS011;45950;45.208;20.374;2024-01-06T00:06:34;15.35;;;9.88;;
60076;SDS011;45950;45.208;20.374;2024-01-06T00:09:01;15.93;;;8.60;;
60076;SDS011;45950;45.208;20.374;2024-01-06T00:11:28;14.75;;;7.40;;
60076;SDS011;45950;45.208;20.374;2024-01-06T00:13:55;13.32;;;7.03;;
60076;SDS011;45950;45.208;20.374;2024-01-06T00:16:21;13.85;;;7.20;;
60076;SDS011;45950;45.208;20.374;2024-01-06T00:18:49;12.07;;;7.43;;
60076;SDS011;45950;45.208;20.374;2024-01-06T00:21:16;13.32;;;7.18;;
60076;SDS011;45950;45.208;20.374;2024-01-06T00:23:43;13.48;;;7.75;;
60076;SDS011;45950;45.208;20.374;2024-01-06T00:26:09;19.75;;;12.02;;
60076;SDS011;45950;45.208;20.374;2024-01-06T00:28:47;13.10;;;8.75;;
60076;SDS011;45950;45.208;20.374;2024-01-06T00:31:15;15.40;;;8.23;;
60076;SDS011;45950;45.208;20.374;2024-01-06T00:33:42;17.30;;;8.65;;
60076;SDS011;45950;45.208;20.374;2024-01-06T00:36:12;13.70;;;8.02;;
60076;SDS011;45950;45.208;20.374;2024-01-06T00:38:38;15.23;;;7.57;;
60076;SDS011;45950;45.208;20.374;2024-01-06T00:41:05;14.35;;;7.70;;
60076;SDS011;45950;45.208;20.374;2024-01-06T00:43:37;12.85;;;7.82;;
60076;SDS011;45950;45.208;20.374;2024-01-06T00:46:03;13.05;;;7.30;;
60076;SDS011;45950;45.208;20.374;2024-01-06T00:48:30;16.17;;;9.25;;
60076;SDS011;45950;45.208;20.374;2024-01-06T00:51:13;15.98;;;8.65;;
60076;SDS011;45950;45.208;20.374;2024-01-06T00:53:40;15.48;;;9.52;;
60076;SDS011;45950;45.208;20.374;2024-01-06T00:56:06;12.20;;;7.70;;
60076;SDS011;45950;45.208;20.374;2024-01-06T01:01:28;11.55;;;6.88;;
60076;SDS011;45950;45.208;20.374;2024-01-06T01:03:55;14.05;;;7.28;;
60076;SDS011;45950;45.208;20.374;2024-01-06T01:06:30;16.13;;;7.75;;
60076;SDS011;45950;45.208;20.374;2024-01-06T01:08:56;16.90;;;7.97;;
60076;SDS011;45950;45.208;20.374;2024-01-06T01:11:23;12.35;;;6.50;;
60076;SDS011;45950;45.208;20.374;2024-01-06T01:13:51;8.63;;;5.35;;
60076;SDS011;45950;45.208;20.374;2024-01-06T01:16:18;12.20;;;5.55;;
60076;SDS011;45950;45.208;20.374;2024-01-06T01:18:44;14.70;;;6.32;;
60076;SDS011;45950;45.208;20.374;2024-01-06T01:21:11;11.23;;;5.82;;
60076;SDS011;45950;45.208;20.374;2024-01-06T01:23:39;24.85;;;13.52;;
60076;SDS011;45950;45.208;20.374;2024-01-06T01:26:05;66.45;;;30.98;;
60076;SDS011;45950;45.208;20.374;2024-01-06T01:28:32;66.97;;;32.75;;
60076;SDS011;45950;45.208;20.374;2024-01-06T01:30:59;38.10;;;21.73;;
60076;SDS011;45950;45.208;20.374;2024-01-06T01:36:27;14.40;;;7.35;;
60076;SDS011;45950;45.208;20.374;2024-01-06T01:38:55;11.57;;;7.43;;
60076;SDS011;45950;45.208;20.374;2024-01-06T01:41:24;9.20;;;5.57;;
60076;SDS011;45950;45.208;20.374;2024-01-06T01:43:50;9.45;;;5.20;;
60076;SDS011;45950;45.208;20.374;2024-01-06T01:46:24;11.77;;;5.03;;
60076;SDS011;45950;45.208;20.374;2024-01-06T01:51:44;9.43;;;5.53;;
60076;SDS011;45950;45.208;20.374;2024-01-06T01:54:12;7.03;;;4.60;;
60076;SDS011;45950;45.208;20.374;2024-01-06T01:56:38;9.90;;;5.25;;
60076;SDS011;45950;45.208;20.374;2024-01-06T01:59:06;11.10;;;4.80;;
60076;SDS011;45950;45.208;20.374;2024-01-06T02:01:35;8.70;;;4.60;;
60076;SDS011;45950;45.208;20.374;2024-01-06T02:04:02;9.43;;;4.65;;
60076;SDS011;45950;45.208;20.374;2024-01-06T02:06:28;9.68;;;5.05;;
60076;SDS011;45950;45.208;20.374;2024-01-06T02:08:55;11.07;;;5.40;;
60076;SDS011;45950;45.208;20.374;2024-01-06T02:11:23;8.63;;;4.95;;
60076;SDS011;45950;45.208;20.374;2024-01-06T02:13:50;9.38;;;4.78;;
60076;SDS011;45950;45.208;20.374;2024-01-06T02:16:16;8.82;;;4.80;;
60076;SDS011;45950;45.208;20.374;2024-01-06T02:18:43;8.48;;;5.13;;
60076;SDS011;45950;45.208;20.374;2024-01-06T02:21:10;8.68;;;4.90;;
60076;SDS011;45950;45.208;20.374;2024-01-06T02:23:38;9.35;;;4.50;;
60076;SDS011;45950;45.208;20.374;2024-01-06T02:26:05;10.93;;;5.07;;
60076;SDS011;45950;45.208;20.374;2024-01-06T02:28:32;8.07;;;5.00;;
60076;SDS011;45950;45.208;20.374;2024-01-06T02:30:58;9.40;;;4.40;;
60076;SDS011;45950;45.208;20.374;2024-01-06T02:33:26;10.55;;;4.78;;
60076;SDS011;45950;45.208;20.374;2024-01-06T02:35:53;12.73;;;6.00;;
60076;SDS011;45950;45.208;20.374;2024-01-06T02:38:19;12.27;;;5.05;;
60076;SDS011;45950;45.208;20.374;2024-01-06T02:41:03;9.02;;;5.10;;
60076;SDS011;45950;45.208;20.374;2024-01-06T02:43:30;8.73;;;4.88;;
60076;SDS011;45950;45.208;20.374;2024-01-06T02:45:56;8.52;;;4.55;;
60076;SDS011;45950;45.208;20.374;2024-01-06T02:48:23;8.77;;;5.00;;
60076;SDS011;45950;45.208;20.374;2024-01-06T02:50:49;8.07;;;4.07;;
60076;SDS011;45950;45.208;20.374;2024-01-06T02:53:16;22.38;;;14.23;;
60076;SDS011;45950;45.208;20.374;2024-01-06T02:55:43;20.75;;;12.05;;
60076;SDS011;45950;45.208;20.374;2024-01-06T03:01:26;21.92;;;12.73;;
60076;SDS011;45950;45.208;20.374;2024-01-06T03:03:52;17.40;;;10.15;;
60076;SDS011;45950;45.208;20.374;2024-01-06T03:06:19;13.02;;;7.32;;
60076;SDS011;45950;45.208;20.374;2024-01-06T03:08:45;16.77;;;12.88;;
60076;SDS011;45950;45.208;20.374;2024-01-06T03:11:19;15.95;;;7.55;;
60076;SDS011;45950;45.208;20.374;2024-01-06T03:13:46;7.95;;;4.95;;
60076;SDS011;45950;45.208;20.374;2024-01-06T03:16:13;13.65;;;6.03;;
60076;SDS011;45950;45.208;20.374;2024-01-06T03:18:41;8.75;;;4.75;;
60076;SDS011;45950;45.208;20.374;2024-01-06T03:21:16;9.55;;;4.63;;
60076;SDS011;45950;45.208;20.374;2024-01-06T03:23:43;8.43;;;4.28;;
60076;SDS011;45950;45.208;20.374;2024-01-06T03:26:10;7.18;;;3.80;;
60076;SDS011;45950;45.208;20.374;2024-01-06T03:28:37;8.23;;;4.13;;
60076;SDS011;45950;45.208;20.374;2024-01-06T03:31:04;9.20;;;4.75;;
60076;SDS011;45950;45.208;20.374;2024-01-06T03:33:30;8.93;;;4.47;;
60076;SDS011;45950;45.208;20.374;2024-01-06T03:35:59;8.70;;;4.40;;
60076;SDS011;45950;45.208;20.374;2024-01-06T03:38:30;7.03;;;3.75;;
60076;SDS011;45950;45.208;20.374;2024-01-06T03:40:56;8.75;;;3.88;;
60076;SDS011;45950;45.208;20.374;2024-01-06T03:43:23;8.75;;;4.63;;
60076;SDS011;45950;45.208;20.374;2024-01-06T03:45:49;7.88;;;4.10;;
60076;SDS011;45950;45.208;20.374;2024-01-06T03:48:27;9.93;;;4.60;;
60076;SDS011;45950;45.208;20.374;2024-01-06T03:50:54;6.82;;;3.95;;
60076;SDS011;45950;45.208;20.374;2024-01-06T03:53:22;8.70;;;4.32;;
60076;SDS011;45950;45.208;20.374;2024-01-06T03:56:06;9.52;;;3.78;;
60076;SDS011;45950;45.208;20.374;2024-01-06T03:58:33;8.23;;;4.00;;
60076;SDS011;45950;45.208;20.374;2024-01-06T04:01:00;8.50;;;3.45;;
60076;SDS011;45950;45.208;20.374;2024-01-06T04:06:16;6.60;;;4.18;;
60076;SDS011;45950;45.208;20.374;2024-01-06T04:08:44;8.30;;;3.97;;
60076;SDS011;45950;45.208;20.374;2024-01-06T04:11:10;6.28;;;3.85;;
60076;SDS011;45950;45.208;20.374;2024-01-06T04:13:37;9.30;;;4.68;;
60076;SDS011;45950;45.208;20.374;2024-01-06T04:16:04;9.63;;;3.78;;
60076;SDS011;45950;45.208;20.374;2024-01-06T04:18:31;9.23;;;4.05;;
60076;SDS011;45950;45.208;20.374;2024-01-06T04:20:57;6.72;;;4.18;;
60076;SDS011;45950;45.208;20.374;2024-01-06T04:23:24;10.68;;;4.57;;
60076;SDS011;45950;45.208;20.374;2024-01-06T04:25:52;5.78;;;3.45;;
60076;SDS011;45950;45.208;20.374;2024-01-06T04:28:36;7.38;;;4.07;;
60076;SDS011;45950;45.208;20.374;2024-01-06T04:31:03;9.43;;;4.55;;
60076;SDS011;45950;45.208;20.374;2024-01-06T04:33:29;8.05;;;3.80;;
60076;SDS011;45950;45.208;20.374;2024-01-06T04:35:56;8.75;;;4.10;;
60076;SDS011;45950;45.208;20.374;2024-01-06T04:38:23;8.60;;;3.85;;
60076;SDS011;45950;45.208;20.374;2024-01-06T04:40:49;6.72;;;3.58;;
60076;SDS011;45950;45.208;20.374;2024-01-06T04:43:17;8.45;;;3.90;;
60076;SDS011;45950;45.208;20.374;2024-01-06T04:45:44;11.02;;;5.30;;
60076;SDS011;45950;45.208;20.374;2024-01-06T04:48:10;17.65;;;10.50;;
60076;SDS011;45950;45.208;20.374;2024-01-06T04:50:42;11.70;;;6.38;;
60076;SDS011;45950;45.208;20.374;2024-01-06T04:53:09;7.75;;;4.60;;
60076;SDS011;45950;45.208;20.374;2024-01-06T04:55:35;9.30;;;7.07;;
60076;SDS011;45950;45.208;20.374;2024-01-06T04:58:02;10.00;;;6.90;;
60076;SDS011;45950;45.208;20.374;2024-01-06T05:00:30;16.00;;;10.02;;
60076;SDS011;45950;45.208;20.374;2024-01-06T05:02:57;13.63;;;10.38;;
60076;SDS011;45950;45.208;20.374;2024-01-06T05:05:24;28.13;;;13.43;;
60076;SDS011;45950;45.208;20.374;2024-01-06T05:07:50;28.20;;;14.68;;
60076;SDS011;45950;45.208;20.374;2024-01-06T05:10:17;12.63;;;8.25;;
60076;SDS011;45950;45.208;20.374;2024-01-06T05:12:43;10.75;;;7.32;;
60076;SDS011;45950;45.208;20.374;2024-01-06T05:15:10;15.73;;;10.52;;
60076;SDS011;45950;45.208;20.374;2024-01-06T05:17:38;13.43;;;8.55;;
60076;SDS011;45950;45.208;20.374;2024-01-06T05:20:05;24.40;;;15.55;;
60076;SDS011;45950;45.208;20.374;2024-01-06T05:22:32;11.40;;;5.85;;
60076;SDS011;45950;45.208;20.374;2024-01-06T05:24:59;6.75;;;4.60;;
60076;SDS011;45950;45.208;20.374;2024-01-06T05:27:25;8.00;;;3.88;;
60076;SDS011;45950;45.208;20.374;2024-01-06T05:29:52;8.65;;;3.97;;
60076;SDS011;45950;45.208;20.374;2024-01-06T05:32:18;9.15;;;4.75;;
60076;SDS011;45950;45.208;20.374;2024-01-06T05:37:43;9.27;;;5.15;;
60076;SDS011;45950;45.208;20.374;2024-01-06T05:40:10;8.90;;;4.65;;
60076;SDS011;45950;45.208;20.374;2024-01-06T05:45:27;8.77;;;4.40;;
60076;SDS011;45950;45.208;20.374;2024-01-06T05:47:53;8.55;;;4.63;;
60076;SDS011;45950;45.208;20.374;2024-01-06T05:50:20;10.73;;;5.03;;
60076;SDS011;45950;45.208;20.374;2024-01-06T05:52:48;8.52;;;4.70;;
60076;SDS011;45950;45.208;20.374;2024-01-06T05:55:15;9.05;;;5.18;;
60076;SDS011;45950;45.208;20.374;2024-01-06T05:57:42;8.73;;;5.20;;
60076;SDS011;45950;45.208;20.374;2024-01-06T06:00:09;9.32;;;4.70;;
60076;SDS011;45950;45.208;20.374;2024-01-06T06:02:36;9.45;;;4.10;;
60076;SDS011;45950;45.208;20.374;2024-01-06T06:05:04;8.80;;;4.32;;
60076;SDS011;45950;45.208;20.374;2024-01-06T06:07:30;9.23;;;4.38;;
60076;SDS011;45950;45.208;20.374;2024-01-06T06:09:58;11.40;;;4.68;;
60076;SDS011;45950;45.208;20.374;2024-01-06T06:12:28;8.57;;;4.53;;
60076;SDS011;45950;45.208;20.374;2024-01-06T06:14:55;12.25;;;4.32;;
60076;SDS011;45950;45.208;20.374;2024-01-06T06:17:21;9.50;;;4.82;;
60076;SDS011;45950;45.208;20.374;2024-01-06T06:19:48;9.45;;;4.90;;
60076;SDS011;45950;45.208;20.374;2024-01-06T06:22:15;10.60;;;5.13;;
60076;SDS011;45950;45.208;20.374;2024-01-06T06:24:41;10.65;;;4.88;;
60076;SDS011;45950;45.208;20.374;2024-01-06T06:27:10;9.15;;;4.90;;
60076;SDS011;45950;45.208;20.374;2024-01-06T06:29:37;9.93;;;5.20;;
60076;SDS011;45950;45.208;20.374;2024-01-06T06:32:04;12.60;;;5.65;;
60076;SDS011;45950;45.208;20.374;2024-01-06T06:34:41;7.70;;;4.57;;
60076;SDS011;45950;45.208;20.374;2024-01-06T06:37:08;11.82;;;5.07;;
60076;SDS011;45950;45.208;20.374;2024-01-06T06:39:35;11.18;;;4.57;;
60076;SDS011;45950;45.208;20.374;2024-01-06T06:42:02;10.80;;;5.15;;
60076;SDS011;45950;45.208;20.374;2024-01-06T06:44:30;10.18;;;5.35;;
60076;SDS011;45950;45.208;20.374;2024-01-06T06:46:57;10.82;;;5.75;;
60076;SDS011;45950;45.208;20.374;2024-01-06T06:49:23;8.65;;;4.68;;
60076;SDS011;45950;45.208;20.374;2024-01-06T06:51:51;11.75;;;6.20;;
60076;SDS011;45950;45.208;20.374;2024-01-06T06:54:17;13.13;;;6.05;;
60076;SDS011;45950;45.208;20.374;2024-01-06T06:56:44;12.77;;;7.03;;
60076;SDS011;45950;45.208;20.374;2024-01-06T06:59:10;13.35;;;5.72;;
60076;SDS011;45950;45.208;20.374;2024-01-06T07:01:39;11.55;;;6.07;;
60076;SDS011;45950;45.208;20.374;2024-01-06T07:04:05;10.68;;;5.45;;
60076;SDS011;45950;45.208;20.374;2024-01-06T07:06:32;8.27;;;5.00;;
60076;SDS011;45950;45.208;20.374;2024-01-06T07:08:58;23.50;;;12.23;;
60076;SDS011;45950;45.208;20.374;2024-01-06T07:11:25;34.95;;;17.02;;
60076;SDS011;45950;45.208;20.374;2024-01-06T07:13:52;16.75;;;8.90;;
60076;SDS011;45950;45.208;20.374;2024-01-06T07:16:19;17.42;;;9.15;;
60076;SDS011;45950;45.208;20.374;2024-01-06T07:18:52;15.63;;;7.45;;
60076;SDS011;45950;45.208;20.374;2024-01-06T07:21:19;12.95;;;7.63;;
60076;SDS011;45950;45.208;20.374;2024-01-06T07:23:45;11.98;;;7.82;;
60076;SDS011;45950;45.208;20.374;2024-01-06T07:26:12;12.52;;;7.20;;
60076;SDS011;45950;45.208;20.374;2024-01-06T07:28:39;10.13;;;6.68;;
60076;SDS011;45950;45.208;20.374;2024-01-06T07:31:05;20.63;;;11.02;;
60076;SDS011;45950;45.208;20.374;2024-01-06T07:33:32;98.40;;;45.13;;
60076;SDS011;45950;45.208;20.374;2024-01-06T07:36:00;33.53;;;18.02;;
60076;SDS011;45950;45.208;20.374;2024-01-06T07:38:26;25.05;;;15.18;;
60076;SDS011;45950;45.208;20.374;2024-01-06T07:40:53;13.10;;;7.80;;
60076;SDS011;45950;45.208;20.374;2024-01-06T07:43:20;10.88;;;5.82;;
60076;SDS011;45950;45.208;20.374;2024-01-06T07:45:47;11.85;;;6.93;;
60076;SDS011;45950;45.208;20.374;2024-01-06T07:48:31;10.65;;;6.38;;
60076;SDS011;45950;45.208;20.374;2024-01-06T07:50:57;14.20;;;6.68;;
60076;SDS011;45950;45.208;20.374;2024-01-06T07:53:25;11.60;;;6.00;;
60076;SDS011;45950;45.208;20.374;2024-01-06T07:55:52;8.93;;;5.32;;
60076;SDS011;45950;45.208;20.374;2024-01-06T07:58:19;12.25;;;6.60;;
60076;SDS011;45950;45.208;20.374;2024-01-06T08:00:46;11.43;;;6.78;;
60076;SDS011;45950;45.208;20.374;2024-01-06T08:03:13;9.23;;;6.10;;
60076;SDS011;45950;45.208;20.374;2024-01-06T08:05:41;12.00;;;6.22;;
60076;SDS011;45950;45.208;20.374;2024-01-06T08:08:08;10.00;;;5.70;;
60076;SDS011;45950;45.208;20.374;2024-01-06T08:10:37;13.25;;;7.00;;
60076;SDS011;45950;45.208;20.374;2024-01-06T08:13:03;14.98;;;8.75;;
60076;SDS011;45950;45.208;20.374;2024-01-06T08:15:30;15.23;;;8.10;;
60076;SDS011;45950;45.208;20.374;2024-01-06T08:17:57;13.10;;;5.80;;
60076;SDS011;45950;45.208;20.374;2024-01-06T08:20:24;9.10;;;5.97;;
60076;SDS011;45950;45.208;20.374;2024-01-06T08:22:50;13.07;;;7.18;;
60076;SDS011;45950;45.208;20.374;2024-01-06T08:25:17;14.15;;;7.20;;
60076;SDS011;45950;45.208;20.374;2024-01-06T08:27:45;13.75;;;6.43;;
60076;SDS011;45950;45.208;20.374;2024-01-06T08:30:12;14.02;;;7.50;;
60076;SDS011;45950;45.208;20.374;2024-01-06T08:32:39;14.98;;;6.82;;
60076;SDS011;45950;45.208;20.374;2024-01-06T08:35:06;12.80;;;7.05;;
60076;SDS011;45950;45.208;20.374;2024-01-06T08:37:33;13.13;;;7.65;;
60076;SDS011;45950;45.208;20.374;2024-01-06T08:39:59;14.27;;;7.53;;
60076;SDS011;45950;45.208;20.374;2024-01-06T08:42:26;10.65;;;6.00;;
60076;SDS011;45950;45.208;20.374;2024-01-06T08:44:54;12.43;;;6.18;;
60076;SDS011;45950;45.208;20.374;2024-01-06T08:47:20;11.73;;;5.88;;
60076;SDS011;45950;45.208;20.374;2024-01-06T08:49:47;12.65;;;6.60;;
60076;SDS011;45950;45.208;20.374;2024-01-06T08:52:14;11.85;;;5.85;;
60076;SDS011;45950;45.208;20.374;2024-01-06T08:54:40;12.48;;;6.18;;
60076;SDS011;45950;45.208;20.374;2024-01-06T08:57:07;14.90;;;6.30;;
60076;SDS011;45950;45.208;20.374;2024-01-06T08:59:35;14.73;;;6.90;;
60076;SDS011;45950;45.208;20.374;2024-01-06T09:02:04;11.55;;;7.07;;
60076;SDS011;45950;45.208;20.374;2024-01-06T09:04:31;13.73;;;6.43;;
60076;SDS011;45950;45.208;20.374;2024-01-06T09:06:57;10.05;;;5.85;;
60076;SDS011;45950;45.208;20.374;2024-01-06T09:09:24;11.50;;;6.53;;
60076;SDS011;45950;45.208;20.374;2024-01-06T09:11:51;9.30;;;5.57;;
60076;SDS011;45950;45.208;20.374;2024-01-06T09:14:18;11.57;;;6.43;;
60076;SDS011;45950;45.208;20.374;2024-01-06T09:16:44;12.13;;;7.10;;
60076;SDS011;45950;45.208;20.374;2024-01-06T09:19:13;13.70;;;6.13;;
60076;SDS011;45950;45.208;20.374;2024-01-06T09:21:39;12.65;;;6.28;;
60076;SDS011;45950;45.208;20.374;2024-01-06T09:24:06;10.82;;;6.57;;
60076;SDS011;45950;45.208;20.374;2024-01-06T09:26:33;11.98;;;6.25;;
60076;SDS011;45950;45.208;20.374;2024-01-06T09:29:00;11.07;;;5.88;;
60076;SDS011;45950;45.208;20.374;2024-01-06T09:31:26;8.13;;;5.05;;
60076;SDS011;45950;45.208;20.374;2024-01-06T09:33:53;11.00;;;6.65;;
60076;SDS011;45950;45.208;20.374;2024-01-06T09:36:21;9.38;;;5.40;;
60076;SDS011;45950;45.208;20.374;2024-01-06T09:38:48;15.60;;;7.32;;
60076;SDS011;45950;45.208;20.374;2024-01-06T09:41:14;11.20;;;7.10;;
60076;SDS011;45950;45.208;20.374;2024-01-06T09:43:57;10.10;;;6.53;;
60076;SDS011;45950;45.208;20.374;2024-01-06T09:46:24;15.27;;;7.80;;
60076;SDS011;45950;45.208;20.374;2024-01-06T09:48:52;12.25;;;7.90;;
60076;SDS011;45950;45.208;20.374;2024-01-06T09:51:19;15.63;;;8.90;;
60076;SDS011;45950;45.208;20.374;2024-01-06T09:53:56;18.15;;;10.23;;
60076;SDS011;45950;45.208;20.374;2024-01-06T09:56:23;17.95;;;9.90;;
60076;SDS011;45950;45.208;20.374;2024-01-06T09:58:50;15.38;;;8.95;;
60076;SDS011;45950;45.208;20.374;2024-01-06T10:01:17;22.88;;;9.18;;
60076;SDS011;45950;45.208;20.374;2024-01-06T10:03:44;16.23;;;9.00;;
60076;SDS011;45950;45.208;20.374;2024-01-06T10:06:11;18.63;;;9.10;;
60076;SDS011;45950;45.208;20.374;2024-01-06T10:08:41;12.75;;;7.78;;
60076;SDS011;45950;45.208;20.374;2024-01-06T10:11:21;13.73;;;7.57;;
60076;SDS011;45950;45.208;20.374;2024-01-06T10:13:48;14.43;;;8.63;;
60076;SDS011;45950;45.208;20.374;2024-01-06T10:16:15;26.10;;;14.27;;
60076;SDS011;45950;45.208;20.374;2024-01-06T10:18:41;23.05;;;13.90;;
60076;SDS011;45950;45.208;20.374;2024-01-06T10:21:09;25.77;;;14.32;;
60076;SDS011;45950;45.208;20.374;2024-01-06T10:23:36;21.80;;;13.55;;
60076;SDS011;45950;45.208;20.374;2024-01-06T10:26:03;19.55;;;12.07;;
60076;SDS011;45950;45.208;20.374;2024-01-06T10:28:31;19.35;;;10.80;;
60076;SDS011;45950;45.208;20.374;2024-01-06T10:30:57;15.27;;;10.30;;
60076;SDS011;45950;45.208;20.374;2024-01-06T10:33:25;15.80;;;8.75;;
60076;SDS011;45950;45.208;20.374;2024-01-06T10:38:40;24.95;;;13.02;;
60076;SDS011;45950;45.208;20.374;2024-01-06T10:41:07;22.65;;;14.05;;
60076;SDS011;45950;45.208;20.374;2024-01-06T10:43:37;18.00;;;11.35;;
60076;SDS011;45950;45.208;20.374;2024-01-06T10:46:06;19.25;;;11.50;;
60076;SDS011;45950;45.208;20.374;2024-01-06T10:48:35;23.60;;;13.43;;
60076;SDS011;45950;45.208;20.374;2024-01-06T10:51:03;21.38;;;11.98;;
60076;SDS011;45950;45.208;20.374;2024-01-06T10:53:32;28.38;;;15.10;;
60076;SDS011;45950;45.208;20.374;2024-01-06T10:56:01;19.60;;;10.57;;
60076;SDS011;45950;45.208;20.374;2024-01-06T10:58:28;15.85;;;9.52;;
60076;SDS011;45950;45.208;20.374;2024-01-06T11:00:57;15.25;;;7.68;;
60076;SDS011;45950;45.208;20.374;2024-01-06T11:06:26;14.48;;;8.02;;
60076;SDS011;45950;45.208;20.374;2024-01-06T11:08:56;13.73;;;8.88;;
60076;SDS011;45950;45.208;20.374;2024-01-06T11:11:23;16.98;;;9.73;;
60076;SDS011;45950;45.208;20.374;2024-01-06T11:13:50;15.43;;;8.93;;
60076;SDS011;45950;45.208;20.374;2024-01-06T11:18:59;14.40;;;8.98;;
60076;SDS011;45950;45.208;20.374;2024-01-06T11:21:26;15.40;;;10.00;;
60076;SDS011;45950;45.208;20.374;2024-01-06T11:26:51;15.48;;;8.45;;
60076;SDS011;45950;45.208;20.374;2024-01-06T11:29:19;15.73;;;9.70;;
60076;SDS011;45950;45.208;20.374;2024-01-06T11:34:29;30.38;;;14.90;;
60076;SDS011;45950;45.208;20.374;2024-01-06T11:36:57;16.77;;;9.32;;
60076;SDS011;45950;45.208;20.374;2024-01-06T11:42:11;21.05;;;11.75;;
60076;SDS011;45950;45.208;20.374;2024-01-06T11:44:38;19.35;;;11.13;;
60076;SDS011;45950;45.208;20.374;2024-01-06T11:47:17;18.63;;;9.32;;
60076;SDS011;45950;45.208;20.374;2024-01-06T11:49:51;20.35;;;11.35;;
60076;SDS011;45950;45.208;20.374;2024-01-06T11:52:20;23.83;;;12.98;;
60076;SDS011;45950;45.208;20.374;2024-01-06T11:54:47;24.13;;;13.55;;
60076;SDS011;45950;45.208;20.374;2024-01-06T11:57:15;23.08;;;14.18;;
60076;SDS011;45950;45.208;20.374;2024-01-06T11:59:41;26.88;;;12.65;;
60076;SDS011;45950;45.208;20.374;2024-01-06T12:02:10;21.90;;;12.48;;
60076;SDS011;45950;45.208;20.374;2024-01-06T12:04:37;31.88;;;16.10;;
60076;SDS011;45950;45.208;20.374;2024-01-06T12:07:07;36.83;;;17.20;;
60076;SDS011;45950;45.208;20.374;2024-01-06T12:09:35;37.65;;;19.17;;
60076;SDS011;45950;45.208;20.374;2024-01-06T12:12:02;39.60;;;20.00;;
60076;SDS011;45950;45.208;20.374;2024-01-06T12:14:30;28.17;;;14.65;;
60076;SDS011;45950;45.208;20.374;2024-01-06T12:16:58;26.58;;;14.18;;
60076;SDS011;45950;45.208;20.374;2024-01-06T12:19:42;26.60;;;14.30;;
60076;SDS011;45950;45.208;20.374;2024-01-06T12:22:11;22.60;;;12.10;;
60076;SDS011;45950;45.208;20.374;2024-01-06T12:24:39;21.42;;;12.10;;
60076;SDS011;45950;45.208;20.374;2024-01-06T12:27:06;19.90;;;10.95;;
60076;SDS011;45950;45.208;20.374;2024-01-06T12:29:33;27.45;;;14.68;;
60076;SDS011;45950;45.208;20.374;2024-01-06T12:32:00;26.13;;;13.48;;
60076;SDS011;45950;45.208;20.374;2024-01-06T12:34:26;23.80;;;11.82;;
60076;SDS011;45950;45.208;20.374;2024-01-06T12:36:53;18.83;;;11.15;;
60076;SDS011;45950;45.208;20.374;2024-01-06T12:39:22;22.58;;;14.50;;
60076;SDS011;45950;45.208;20.374;2024-01-06T12:41:50;26.00;;;15.57;;
60076;SDS011;45950;45.208;20.374;2024-01-06T12:44:17;38.55;;;21.02;;
60076;SDS011;45950;45.208;20.374;2024-01-06T12:46:43;48.95;;;30.70;;
60076;SDS011;45950;45.208;20.374;2024-01-06T12:49:10;29.83;;;19.67;;
60076;SDS011;45950;45.208;20.374;2024-01-06T12:51:37;17.77;;;11.30;;
60076;SDS011;45950;45.208;20.374;2024-01-06T12:54:03;18.17;;;10.55;;
60076;SDS011;45950;45.208;20.374;2024-01-06T12:56:32;14.52;;;9.38;;
60076;SDS011;45950;45.208;20.374;2024-01-06T12:58:58;18.33;;;9.30;;
60076;SDS011;45950;45.208;20.374;2024-01-06T13:01:25;16.60;;;9.57;;
60076;SDS011;45950;45.208;20.374;2024-01-06T13:03:51;19.05;;;10.65;;
60076;SDS011;45950;45.208;20.374;2024-01-06T13:06:19;16.20;;;9.75;;
60076;SDS011;45950;45.208;20.374;2024-01-06T13:08:45;20.63;;;11.00;;
60076;SDS011;45950;45.208;20.374;2024-01-06T13:11:22;18.42;;;9.63;;
60076;SDS011;45950;45.208;20.374;2024-01-06T13:13:50;21.05;;;10.70;;
60076;SDS011;45950;45.208;20.374;2024-01-06T13:16:17;18.90;;;10.90;;
60076;SDS011;45950;45.208;20.374;2024-01-06T13:18:44;20.05;;;10.85;;
60076;SDS011;45950;45.208;20.374;2024-01-06T13:21:12;22.70;;;12.50;;
60076;SDS011;45950;45.208;20.374;2024-01-06T13:23:39;16.48;;;9.98;;
60076;SDS011;45950;45.208;20.374;2024-01-06T13:26:05;18.23;;;9.82;;
60076;SDS011;45950;45.208;20.374;2024-01-06T13:28:33;16.30;;;8.65;;
60076;SDS011;45950;45.208;20.374;2024-01-06T13:31:01;13.43;;;8.02;;
60076;SDS011;45950;45.208;20.374;2024-01-06T13:33:28;16.48;;;8.98;;
60076;SDS011;45950;45.208;20.374;2024-01-06T13:35:55;19.45;;;9.45;;
60076;SDS011;45950;45.208;20.374;2024-01-06T13:38:21;19.08;;;10.25;;
60076;SDS011;45950;45.208;20.374;2024-01-06T13:43:36;18.95;;;8.82;;
60076;SDS011;45950;45.208;20.374;2024-01-06T13:46:04;13.48;;;8.05;;
60076;SDS011;45950;45.208;20.374;2024-01-06T13:48:40;14.10;;;7.47;;
60076;SDS011;45950;45.208;20.374;2024-01-06T13:51:07;12.38;;;7.85;;
60076;SDS011;45950;45.208;20.374;2024-01-06T13:53:32;16.73;;;8.57;;
60076;SDS011;45950;45.208;20.374;2024-01-06T13:55:59;26.38;;;11.25;;
60076;SDS011;45950;45.208;20.374;2024-01-06T13:58:26;20.98;;;10.68;;
60076;SDS011;45950;45.208;20.374;2024-01-06T14:03:40;15.15;;;9.23;;
60076;SDS011;45950;45.208;20.374;2024-01-06T14:06:07;16.30;;;8.70;;
60076;SDS011;45950;45.208;20.374;2024-01-06T14:08:34;38.00;;;18.45;;
60076;SDS011;45950;45.208;20.374;2024-01-06T14:11:00;48.90;;;23.65;;
60076;SDS011;45950;45.208;20.374;2024-01-06T14:13:27;38.35;;;20.58;;
60076;SDS011;45950;45.208;20.374;2024-01-06T14:15:54;23.77;;;14.68;;
60076;SDS011;45950;45.208;20.374;2024-01-06T14:21:11;16.50;;;10.18;;
60076;SDS011;45950;45.208;20.374;2024-01-06T14:23:39;17.95;;;9.93;;
60076;SDS011;45950;45.208;20.374;2024-01-06T14:26:07;15.80;;;9.65;;
60076;SDS011;45950;45.208;20.374;2024-01-06T14:28:34;17.23;;;10.23;;
60076;SDS011;45950;45.208;20.374;2024-01-06T14:33:47;16.88;;;9.07;;
60076;SDS011;45950;45.208;20.374;2024-01-06T14:36:15;15.63;;;8.30;;
60076;SDS011;45950;45.208;20.374;2024-01-06T14:38:43;13.52;;;8.20;;
60076;SDS011;45950;45.208;20.374;2024-01-06T14:41:09;15.98;;;9.25;;
60076;SDS011;45950;45.208;20.374;2024-01-06T14:43:36;18.35;;;9.73;;
60076;SDS011;45950;45.208;20.374;2024-01-06T14:46:03;16.13;;;10.20;;
60076;SDS011;45950;45.208;20.374;2024-01-06T14:48:30;19.20;;;9.68;;
60076;SDS011;45950;45.208;20.374;2024-01-06T14:50:57;18.55;;;8.95;;
60076;SDS011;45950;45.208;20.374;2024-01-06T14:53:25;15.27;;;9.98;;
60076;SDS011;45950;45.208;20.374;2024-01-06T14:55:52;17.20;;;9.43;;
60076;SDS011;45950;45.208;20.374;2024-01-06T14:58:18;15.43;;;8.60;;
60076;SDS011;45950;45.208;20.374;2024-01-06T15:00:45;14.18;;;8.18;;
60076;SDS011;45950;45.208;20.374;2024-01-06T15:03:22;15.50;;;8.60;;
60076;SDS011;45950;45.208;20.374;2024-01-06T15:05:48;15.57;;;8.77;;
60076;SDS011;45950;45.208;20.374;2024-01-06T15:08:15;14.25;;;8.43;;
60076;SDS011;45950;45.208;20.374;2024-01-06T15:10:43;13.75;;;8.43;;
60076;SDS011;45950;45.208;20.374;2024-01-06T15:13:10;13.07;;;8.38;;